sensor_id;sensor_type;location;lat;lon;timestamp;pressure;altitude;pressure_sealevel;temperature;humidity
20350;BME280;10332;50.208;18.988;2023-02-15T00:00:08;99696.59;;;6.43;74.92
20350;BME280;10332;50.208;18.988;2023-02-15T00:02:57;99694.16;;;6.39;75.15
20350;BME280;10332;50.208;18.988;2023-02-15T00:05:25;99692.53;;;6.33;75.51
20350;BME280;10332;50.208;18.988;2023-02-15T00:07:52;99690.00;;;6.32;75.14
20350;BME280;10332;50.208;18.988;2023-02-15T00:10:20;99690.88;;;6.31;75.49
20350;BME280;10332;50.208;18.988;2023-02-15T00:12:47;99686.59;;;6.28;75.58
20350;BME280;10332;50.208;18.988;2023-02-15T00:15:15;99689.16;;;6.31;75.47
20350;BME280;10332;50.208;18.988;2023-02-15T00:17:42;99685.84;;;6.24;75.37
20350;BME280;10332;50.208;18.988;2023-02-15T00:20:10;99675.06;;;6.06;76.07
20350;BME280;10332;50.208;18.988;2023-02-15T00:22:38;99677.81;;;6.00;76.06
20350;BME280;10332;50.208;18.988;2023-02-15T00:25:05;99671.09;;;5.89;76.46
20350;BME280;10332;50.208;18.988;2023-02-15T00:27:33;99668.38;;;5.97;76.41
20350;BME280;10332;50.208;18.988;2023-02-15T00:30:01;99668.19;;;6.05;76.31
20350;BME280;10332;50.208;18.988;2023-02-15T00:32:29;99668.41;;;5.95;76.47
20350;BME280;10332;50.208;18.988;2023-02-15T00:34:56;99666.63;;;5.97;76.30
20350;BME280;10332;50.208;18.988;2023-02-15T00:37:24;99665.69;;;6.00;76.51
20350;BME280;10332;50.208;18.988;2023-02-15T00:39:51;99654.34;;;6.06;76.27
20350;BME280;10332;50.208;18.988;2023-02-15T00:42:18;99656.78;;;6.10;76.09
20350;BME280;10332;50.208;18.988;2023-02-15T00:44:46;99639.50;;;6.11;75.91
20350;BME280;10332;50.208;18.988;2023-02-15T00:47:13;99650.75;;;6.11;75.82
20350;BME280;10332;50.208;18.988;2023-02-15T00:49:41;99643.72;;;6.15;76.04
20350;BME280;10332;50.208;18.988;2023-02-15T00:52:08;99635.44;;;6.02;76.28
20350;BME280;10332;50.208;18.988;2023-02-15T00:54:36;99634.59;;;6.00;76.24
20350;BME280;10332;50.208;18.988;2023-02-15T00:57:05;99637.31;;;5.95;76.50
20350;BME280;10332;50.208;18.988;2023-02-15T00:59:34;99634.81;;;5.89;76.61
20350;BME280;10332;50.208;18.988;2023-02-15T01:02:02;99643.38;;;5.94;76.73
20350;BME280;10332;50.208;18.988;2023-02-15T01:04:29;99644.06;;;6.03;76.40
20350;BME280;10332;50.208;18.988;2023-02-15T01:06:57;99637.88;;;6.07;76.33
20350;BME280;10332;50.208;18.988;2023-02-15T01:09:24;99638.63;;;6.12;76.39
20350;BME280;10332;50.208;18.988;2023-02-15T01:11:52;99637.66;;;6.16;76.31
20350;BME280;10332;50.208;18.988;2023-02-15T01:14:19;99640.09;;;6.22;76.10
20350;BME280;10332;50.208;18.988;2023-02-15T01:16:47;99643.50;;;6.24;76.30
20350;BME280;10332;50.208;18.988;2023-02-15T01:19:14;99636.53;;;6.26;76.21
20350;BME280;10332;50.208;18.988;2023-02-15T01:21:42;99639.06;;;6.29;76.07
20350;BME280;10332;50.208;18.988;2023-02-15T01:24:14;99632.19;;;6.26;75.95
20350;BME280;10332;50.208;18.988;2023-02-15T01:26:41;99630.53;;;6.24;76.35
20350;BME280;10332;50.208;18.988;2023-02-15T01:29:09;99618.50;;;6.21;76.32
20350;BME280;10332;50.208;18.988;2023-02-15T01:31:36;99619.41;;;6.20;76.32
20350;BME280;10332;50.208;18.988;2023-02-15T01:34:06;99616.75;;;6.22;76.29
20350;BME280;10332;50.208;18.988;2023-02-15T01:36:34;99616.00;;;6.17;76.24
20350;BME280;10332;50.208;18.988;2023-02-15T01:39:02;99624.78;;;6.13;76.19
20350;BME280;10332;50.208;18.988;2023-02-15T01:41:30;99603.72;;;5.89;76.78
20350;BME280;10332;50.208;18.988;2023-02-15T01:44:01;99601.91;;;5.94;76.80
20350;BME280;10332;50.208;18.988;2023-02-15T01:46:37;99599.69;;;5.78;77.28
20350;BME280;10332;50.208;18.988;2023-02-15T01:49:26;99600.69;;;5.72;77.51
20350;BME280;10332;50.208;18.988;2023-02-15T01:51:55;99586.78;;;5.76;77.43
20350;BME280;10332;50.208;18.988;2023-02-15T01:54:29;99598.13;;;5.70;77.86
20350;BME280;10332;50.208;18.988;2023-02-15T01:57:05;99594.78;;;5.67;77.78
20350;BME280;10332;50.208;18.988;2023-02-15T01:59:39;99588.63;;;5.71;77.56
20350;BME280;10332;50.208;18.988;2023-02-15T02:02:13;99589.66;;;5.64;77.76
20350;BME280;10332;50.208;18.988;2023-02-15T02:04:50;99588.94;;;5.59;78.03
20350;BME280;10332;50.208;18.988;2023-02-15T02:07:22;99591.44;;;5.62;78.27
20350;BME280;10332;50.208;18.988;2023-02-15T02:09:51;99583.13;;;5.48;78.87
20350;BME280;10332;50.208;18.988;2023-02-15T02:12:21;99580.63;;;5.45;79.32
20350;BME280;10332;50.208;18.988;2023-02-15T02:14:51;99574.53;;;5.46;79.37
20350;BME280;10332;50.208;18.988;2023-02-15T02:18:03;99570.03;;;5.54;78.50
20350;BME280;10332;50.208;18.988;2023-02-15T02:23:43;99560.03;;;5.40;79.06
20350;BME280;10332;50.208;18.988;2023-02-15T02:30:41;99560.88;;;5.40;79.13
20350;BME280;10332;50.208;18.988;2023-02-15T02:39:00;99540.59;;;5.22;79.73
20350;BME280;10332;50.208;18.988;2023-02-15T02:44:30;99535.25;;;5.28;79.67
20350;BME280;10332;50.208;18.988;2023-02-15T02:47:22;99533.50;;;5.30;79.60
20350;BME280;10332;50.208;18.988;2023-02-15T02:50:08;99522.91;;;5.39;79.63
20350;BME280;10332;50.208;18.988;2023-02-15T02:52:50;99529.03;;;5.35;79.01
20350;BME280;10332;50.208;18.988;2023-02-15T02:55:30;99524.00;;;5.31;79.38
20350;BME280;10332;50.208;18.988;2023-02-15T03:01:02;99525.06;;;5.21;79.99
20350;BME280;10332;50.208;18.988;2023-02-15T03:03:54;99526.78;;;5.22;79.80
20350;BME280;10332;50.208;18.988;2023-02-15T03:06:37;99528.41;;;5.26;79.98
20350;BME280;10332;50.208;18.988;2023-02-15T03:09:39;99521.63;;;5.22;80.05
20350;BME280;10332;50.208;18.988;2023-02-15T03:12:23;99525.78;;;5.27;79.60
20350;BME280;10332;50.208;18.988;2023-02-15T03:14:57;99513.84;;;5.22;79.95
20350;BME280;10332;50.208;18.988;2023-02-15T03:17:34;99513.00;;;5.21;79.93
20350;BME280;10332;50.208;18.988;2023-02-15T03:20:10;99511.44;;;5.14;79.92
20350;BME280;10332;50.208;18.988;2023-02-15T03:22:52;99515.03;;;5.07;80.54
20350;BME280;10332;50.208;18.988;2023-02-15T03:25:39;99510.84;;;5.01;80.86
20350;BME280;10332;50.208;18.988;2023-02-15T03:28:15;99511.69;;;5.02;80.91
20350;BME280;10332;50.208;18.988;2023-02-15T03:30:52;99518.94;;;4.88;81.56
20350;BME280;10332;50.208;18.988;2023-02-15T03:33:22;99516.94;;;4.99;81.18
20350;BME280;10332;50.208;18.988;2023-02-15T03:38:49;99504.97;;;4.95;81.20
20350;BME280;10332;50.208;18.988;2023-02-15T03:41:21;99522.59;;;4.77;81.94
20350;BME280;10332;50.208;18.988;2023-02-15T03:44:04;99521.06;;;4.67;82.55
20350;BME280;10332;50.208;18.988;2023-02-15T03:49:45;99523.78;;;4.63;83.15
20350;BME280;10332;50.208;18.988;2023-02-15T03:52:17;99521.06;;;4.67;83.00
20350;BME280;10332;50.208;18.988;2023-02-15T03:54:45;99521.75;;;4.77;82.81
20350;BME280;10332;50.208;18.988;2023-02-15T03:57:23;99521.91;;;4.69;83.15
20350;BME280;10332;50.208;18.988;2023-02-15T04:05:44;99518.78;;;4.94;82.34
20350;BME280;10332;50.208;18.988;2023-02-15T04:08:13;99519.19;;;4.75;82.69
20350;BME280;10332;50.208;18.988;2023-02-15T04:10:41;99530.25;;;4.82;82.89
20350;BME280;10332;50.208;18.988;2023-02-15T04:13:30;99526.09;;;4.76;82.96
20350;BME280;10332;50.208;18.988;2023-02-15T04:15:58;99527.94;;;4.70;83.43
20350;BME280;10332;50.208;18.988;2023-02-15T04:18:41;99530.50;;;4.71;83.69
20350;BME280;10332;50.208;18.988;2023-02-15T04:21:30;99528.66;;;4.76;83.39
20350;BME280;10332;50.208;18.988;2023-02-15T04:24:17;99524.44;;;4.72;83.32
20350;BME280;10332;50.208;18.988;2023-02-15T04:27:04;99523.75;;;4.64;83.68
20350;BME280;10332;50.208;18.988;2023-02-15T04:29:33;99520.06;;;4.74;83.26
20350;BME280;10332;50.208;18.988;2023-02-15T04:32:01;99521.75;;;4.75;83.36
20350;BME280;10332;50.208;18.988;2023-02-15T04:34:29;99519.38;;;4.68;83.51
20350;BME280;10332;50.208;18.988;2023-02-15T04:36:57;99524.34;;;4.77;83.21
20350;BME280;10332;50.208;18.988;2023-02-15T04:39:24;99520.41;;;4.57;83.62
20350;BME280;10332;50.208;18.988;2023-02-15T04:41:52;99518.69;;;4.58;83.93
20350;BME280;10332;50.208;18.988;2023-02-15T04:44:19;99522.94;;;4.62;83.82
20350;BME280;10332;50.208;18.988;2023-02-15T04:46:46;99523.06;;;4.54;84.35
20350;BME280;10332;50.208;18.988;2023-02-15T04:49:14;99521.34;;;4.55;84.48
20350;BME280;10332;50.208;18.988;2023-02-15T04:51:42;99519.44;;;4.63;84.07
20350;BME280;10332;50.208;18.988;2023-02-15T04:54:09;99518.72;;;4.56;84.24
20350;BME280;10332;50.208;18.988;2023-02-15T04:56:37;99523.94;;;4.55;84.17
20350;BME280;10332;50.208;18.988;2023-02-15T04:59:06;99517.03;;;4.55;84.49
20350;BME280;10332;50.208;18.988;2023-02-15T05:01:33;99520.47;;;4.56;84.66
20350;BME280;10332;50.208;18.988;2023-02-15T05:04:01;99512.56;;;4.62;84.51
20350;BME280;10332;50.208;18.988;2023-02-15T05:06:29;99510.19;;;4.53;85.16
20350;BME280;10332;50.208;18.988;2023-02-15T05:08:57;99517.94;;;4.53;85.09
20350;BME280;10332;50.208;18.988;2023-02-15T05:11:26;99516.97;;;4.59;85.08
20350;BME280;10332;50.208;18.988;2023-02-15T05:13:54;99523.00;;;4.57;85.24
20350;BME280;10332;50.208;18.988;2023-02-15T05:16:21;99524.50;;;4.69;84.78
20350;BME280;10332;50.208;18.988;2023-02-15T05:18:49;99524.50;;;4.69;85.09
20350;BME280;10332;50.208;18.988;2023-02-15T05:21:16;99517.97;;;4.51;85.32
20350;BME280;10332;50.208;18.988;2023-02-15T05:23:44;99522.13;;;4.60;85.23
20350;BME280;10332;50.208;18.988;2023-02-15T05:26:16;99519.38;;;4.66;85.24
20350;BME280;10332;50.208;18.988;2023-02-15T05:29:04;99523.47;;;4.78;84.77
20350;BME280;10332;50.208;18.988;2023-02-15T05:31:32;99526.84;;;4.80;84.77
20350;BME280;10332;50.208;18.988;2023-02-15T05:34:01;99520.66;;;4.87;84.35
20350;BME280;10332;50.208;18.988;2023-02-15T05:36:29;99520.72;;;4.86;84.23
20350;BME280;10332;50.208;18.988;2023-02-15T05:38:56;99518.28;;;4.78;84.27
20350;BME280;10332;50.208;18.988;2023-02-15T05:41:24;99522.66;;;4.74;84.51
20350;BME280;10332;50.208;18.988;2023-02-15T05:43:55;99513.31;;;4.69;84.83
20350;BME280;10332;50.208;18.988;2023-02-15T05:46:23;99521.88;;;4.71;84.33
20350;BME280;10332;50.208;18.988;2023-02-15T05:48:51;99522.94;;;4.62;84.76
20350;BME280;10332;50.208;18.988;2023-02-15T05:51:18;99522.03;;;4.63;84.96
20350;BME280;10332;50.208;18.988;2023-02-15T05:53:46;99523.84;;;4.58;85.29
20350;BME280;10332;50.208;18.988;2023-02-15T05:56:13;99521.53;;;4.46;85.93
20350;BME280;10332;50.208;18.988;2023-02-15T05:58:41;99524.88;;;4.51;85.95
20350;BME280;10332;50.208;18.988;2023-02-15T06:01:12;99518.78;;;4.53;85.73
20350;BME280;10332;50.208;18.988;2023-02-15T06:03:40;99525.50;;;4.62;85.70
20350;BME280;10332;50.208;18.988;2023-02-15T06:06:08;99520.47;;;4.56;85.74
20350;BME280;10332;50.208;18.988;2023-02-15T06:08:37;99518.03;;;4.50;85.88
20350;BME280;10332;50.208;18.988;2023-02-15T06:11:05;99510.38;;;4.44;86.24
20350;BME280;10332;50.208;18.988;2023-02-15T06:13:34;99513.69;;;4.49;86.06
20350;BME280;10332;50.208;18.988;2023-02-15T06:16:06;99510.63;;;4.30;86.75
20350;BME280;10332;50.208;18.988;2023-02-15T06:18:34;99516.66;;;4.31;87.14
20350;BME280;10332;50.208;18.988;2023-02-15T06:21:01;99515.81;;;4.30;87.34
20350;BME280;10332;50.208;18.988;2023-02-15T06:23:29;99525.06;;;4.42;87.09
20350;BME280;10332;50.208;18.988;2023-02-15T06:25:57;99527.78;;;4.36;87.20
20350;BME280;10332;50.208;18.988;2023-02-15T06:28:24;99527.63;;;4.43;87.25
20350;BME280;10332;50.208;18.988;2023-02-15T06:30:52;99526.81;;;4.41;87.07
20350;BME280;10332;50.208;18.988;2023-02-15T06:33:21;99534.47;;;4.46;87.07
20350;BME280;10332;50.208;18.988;2023-02-15T06:35:48;99533.50;;;4.51;86.89
20350;BME280;10332;50.208;18.988;2023-02-15T06:38:16;99530.75;;;4.59;86.95
20350;BME280;10332;50.208;18.988;2023-02-15T06:40:44;99534.69;;;4.75;86.32
20350;BME280;10332;50.208;18.988;2023-02-15T06:43:12;99534.50;;;4.86;86.32
20350;BME280;10332;50.208;18.988;2023-02-15T06:45:41;99533.50;;;4.92;85.71
20350;BME280;10332;50.208;18.988;2023-02-15T06:48:09;99529.00;;;5.00;85.55
20350;BME280;10332;50.208;18.988;2023-02-15T06:50:38;99527.94;;;5.08;85.07
20350;BME280;10332;50.208;18.988;2023-02-15T06:53:06;99531.31;;;5.12;84.59
20350;BME280;10332;50.208;18.988;2023-02-15T06:55:33;99530.66;;;5.04;84.52
20350;BME280;10332;50.208;18.988;2023-02-15T06:58:01;99527.81;;;5.15;84.46
20350;BME280;10332;50.208;18.988;2023-02-15T07:00:28;99519.25;;;5.12;84.50
20350;BME280;10332;50.208;18.988;2023-02-15T07:02:57;99526.72;;;5.25;84.48
20350;BME280;10332;50.208;18.988;2023-02-15T07:05:26;99516.06;;;5.37;84.22
20350;BME280;10332;50.208;18.988;2023-02-15T07:07:59;99517.78;;;5.36;83.76
20350;BME280;10332;50.208;18.988;2023-02-15T07:10:28;99520.13;;;5.47;83.37
20350;BME280;10332;50.208;18.988;2023-02-15T07:12:55;99521.50;;;5.62;83.26
20350;BME280;10332;50.208;18.988;2023-02-15T07:15:23;99521.41;;;5.65;82.59
20350;BME280;10332;50.208;18.988;2023-02-15T07:17:51;99519.50;;;5.72;82.38
20350;BME280;10332;50.208;18.988;2023-02-15T07:20:22;99522.91;;;5.75;82.16
20350;BME280;10332;50.208;18.988;2023-02-15T07:22:50;99521.03;;;5.80;81.37
20350;BME280;10332;50.208;18.988;2023-02-15T07:25:18;99522.84;;;5.77;80.97
20350;BME280;10332;50.208;18.988;2023-02-15T07:27:45;99512.16;;;5.55;81.73
20350;BME280;10332;50.208;18.988;2023-02-15T07:30:16;99517.25;;;5.59;81.32
20350;BME280;10332;50.208;18.988;2023-02-15T07:32:44;99511.47;;;5.48;81.56
20350;BME280;10332;50.208;18.988;2023-02-15T07:35:32;99514.47;;;5.65;81.21
20350;BME280;10332;50.208;18.988;2023-02-15T07:38:00;99517.06;;;5.67;81.24
20350;BME280;10332;50.208;18.988;2023-02-15T07:40:28;99508.16;;;5.77;81.25
20350;BME280;10332;50.208;18.988;2023-02-15T07:42:58;99513.25;;;5.80;81.37
20350;BME280;10332;50.208;18.988;2023-02-15T07:45:26;99514.50;;;6.00;81.07
20350;BME280;10332;50.208;18.988;2023-02-15T07:47:54;99517.81;;;6.05;80.64
20350;BME280;10332;50.208;18.988;2023-02-15T07:50:21;99512.94;;;6.25;80.26
20350;BME280;10332;50.208;18.988;2023-02-15T07:52:49;99513.63;;;6.32;79.39
20350;BME280;10332;50.208;18.988;2023-02-15T07:55:16;99505.94;;;6.58;78.99
20350;BME280;10332;50.208;18.988;2023-02-15T07:57:46;99504.50;;;6.77;77.92
20350;BME280;10332;50.208;18.988;2023-02-15T08:00:19;99493.56;;;6.96;77.23
20350;BME280;10332;50.208;18.988;2023-02-15T08:02:55;99495.41;;;7.47;76.26
20350;BME280;10332;50.208;18.988;2023-02-15T08:05:43;99508.09;;;7.81;75.00
20350;BME280;10332;50.208;18.988;2023-02-15T08:08:12;99506.28;;;7.84;74.85
20350;BME280;10332;50.208;18.988;2023-02-15T08:11:18;99504.56;;;8.08;73.94
20350;BME280;10332;50.208;18.988;2023-02-15T08:14:15;99497.28;;;8.43;72.73
20350;BME280;10332;50.208;18.988;2023-02-15T08:16:52;99495.22;;;8.74;70.99
20350;BME280;10332;50.208;18.988;2023-02-15T08:24:32;99493.50;;;10.02;66.24
20350;BME280;10332;50.208;18.988;2023-02-15T08:27:00;99483.16;;;10.96;63.30
20350;BME280;10332;50.208;18.988;2023-02-15T08:29:35;99483.63;;;13.07;58.84
20350;BME280;10332;50.208;18.988;2023-02-15T08:32:11;99485.59;;;16.27;51.66
20350;BME280;10332;50.208;18.988;2023-02-15T08:34:41;99470.78;;;18.84;46.55
20350;BME280;10332;50.208;18.988;2023-02-15T08:37:09;99471.09;;;21.30;40.12
20350;BME280;10332;50.208;18.988;2023-02-15T08:39:36;99465.84;;;22.80;35.62
20350;BME280;10332;50.208;18.988;2023-02-15T08:42:04;99466.44;;;24.69;33.49
20350;BME280;10332;50.208;18.988;2023-02-15T08:44:31;99469.66;;;25.39;29.13
20350;BME280;10332;50.208;18.988;2023-02-15T08:46:59;99465.19;;;26.99;28.73
20350;BME280;10332;50.208;18.988;2023-02-15T08:49:31;99476.03;;;28.20;26.82
20350;BME280;10332;50.208;18.988;2023-02-15T08:51:59;99475.06;;;28.36;25.95
20350;BME280;10332;50.208;18.988;2023-02-15T08:54:27;99462.34;;;29.47;24.75
20350;BME280;10332;50.208;18.988;2023-02-15T08:56:54;99468.03;;;31.05;24.12
20350;BME280;10332;50.208;18.988;2023-02-15T08:59:23;99465.69;;;31.89;22.89
20350;BME280;10332;50.208;18.988;2023-02-15T09:01:52;99467.75;;;32.34;21.42
20350;BME280;10332;50.208;18.988;2023-02-15T09:04:20;99459.31;;;32.75;21.38
20350;BME280;10332;50.208;18.988;2023-02-15T09:06:50;99462.78;;;32.95;20.00
20350;BME280;10332;50.208;18.988;2023-02-15T09:09:19;99463.84;;;34.14;19.33
20350;BME280;10332;50.208;18.988;2023-02-15T09:11:49;99460.25;;;33.45;18.93
20350;BME280;10332;50.208;18.988;2023-02-15T09:14:25;99465.91;;;35.10;18.36
20350;BME280;10332;50.208;18.988;2023-02-15T09:16:54;99470.09;;;35.66;17.85
20350;BME280;10332;50.208;18.988;2023-02-15T09:19:23;99463.91;;;36.13;18.38
20350;BME280;10332;50.208;18.988;2023-02-15T09:21:50;99454.19;;;37.32;17.41
20350;BME280;10332;50.208;18.988;2023-02-15T09:24:19;99459.84;;;37.76;16.41
20350;BME280;10332;50.208;18.988;2023-02-15T09:26:48;99446.94;;;38.22;16.20
20350;BME280;10332;50.208;18.988;2023-02-15T09:29:18;99451.66;;;38.10;15.34
20350;BME280;10332;50.208;18.988;2023-02-15T09:31:48;99443.63;;;39.29;15.46
20350;BME280;10332;50.208;18.988;2023-02-15T09:34:21;99442.41;;;39.79;15.02
20350;BME280;10332;50.208;18.988;2023-02-15T09:36:51;99438.25;;;40.04;14.05
20350;BME280;10332;50.208;18.988;2023-02-15T09:39:24;99437.34;;;38.58;14.26
20350;BME280;10332;50.208;18.988;2023-02-15T09:48:14;99427.78;;;39.58;13.66
20350;BME280;10332;50.208;18.988;2023-02-15T09:53:59;99421.34;;;40.74;13.31
20350;BME280;10332;50.208;18.988;2023-02-15T09:57:07;99422.63;;;41.70;12.86
20350;BME280;10332;50.208;18.988;2023-02-15T10:02:24;99417.22;;;43.04;12.09
20350;BME280;10332;50.208;18.988;2023-02-15T10:05:21;99410.31;;;42.63;11.85
20350;BME280;10332;50.208;18.988;2023-02-15T10:17:20;99399.38;;;44.47;10.99
20350;BME280;10332;50.208;18.988;2023-02-15T10:26:20;99400.88;;;44.15;10.65
20350;BME280;10332;50.208;18.988;2023-02-15T10:29:35;99386.03;;;42.75;10.75
20350;BME280;10332;50.208;18.988;2023-02-15T10:32:25;99388.38;;;43.99;10.46
20350;BME280;10332;50.208;18.988;2023-02-15T10:37:54;99384.31;;;45.01;10.15
20350;BME280;10332;50.208;18.988;2023-02-15T10:44:23;99372.38;;;46.67;9.49
20350;BME280;10332;50.208;18.988;2023-02-15T10:52:46;99367.34;;;46.47;9.38
20350;BME280;10332;50.208;18.988;2023-02-15T10:58:26;99358.94;;;46.74;9.14
20350;BME280;10332;50.208;18.988;2023-02-15T11:01:30;99350.31;;;47.34;9.16
20350;BME280;10332;50.208;18.988;2023-02-15T11:06:57;99341.09;;;48.27;8.89
20350;BME280;10332;50.208;18.988;2023-02-15T11:09:40;99339.69;;;48.55;8.99
20350;BME280;10332;50.208;18.988;2023-02-15T11:12:15;99328.16;;;47.57;8.80
20350;BME280;10332;50.208;18.988;2023-02-15T11:17:39;99339.81;;;46.64;9.22
20350;BME280;10332;50.208;18.988;2023-02-15T11:20:36;99330.16;;;46.75;8.96
20350;BME280;10332;50.208;18.988;2023-02-15T11:23:14;99322.84;;;46.79;9.14
20350;BME280;10332;50.208;18.988;2023-02-15T11:26:11;99320.28;;;45.04;9.17
20350;BME280;10332;50.208;18.988;2023-02-15T11:28:43;99311.88;;;46.02;9.37
20350;BME280;10332;50.208;18.988;2023-02-15T11:31:18;99310.69;;;47.25;9.13
20350;BME280;10332;50.208;18.988;2023-02-15T11:33:57;99316.19;;;48.61;8.90
20350;BME280;10332;50.208;18.988;2023-02-15T11:36:32;99309.34;;;46.91;9.02
20350;BME280;10332;50.208;18.988;2023-02-15T11:39:20;99313.38;;;48.18;8.84
20350;BME280;10332;50.208;18.988;2023-02-15T11:41:53;99306.91;;;48.83;8.56
20350;BME280;10332;50.208;18.988;2023-02-15T11:44:44;99299.25;;;48.46;8.64
20350;BME280;10332;50.208;18.988;2023-02-15T11:47:14;99303.75;;;46.69;9.01
20350;BME280;10332;50.208;18.988;2023-02-15T11:49:44;99291.59;;;43.29;9.79
20350;BME280;10332;50.208;18.988;2023-02-15T11:52:16;99287.41;;;46.59;9.31
20350;BME280;10332;50.208;18.988;2023-02-15T11:54:50;99290.16;;;45.40;9.45
20350;BME280;10332;50.208;18.988;2023-02-15T11:57:39;99287.91;;;45.83;9.32
20350;BME280;10332;50.208;18.988;2023-02-15T12:00:49;99283.25;;;47.15;9.02
20350;BME280;10332;50.208;18.988;2023-02-15T12:03:34;99278.59;;;45.52;9.25
20350;BME280;10332;50.208;18.988;2023-02-15T12:06:17;99279.94;;;46.82;9.06
20350;BME280;10332;50.208;18.988;2023-02-15T12:08:57;99282.53;;;46.42;8.84
20350;BME280;10332;50.208;18.988;2023-02-15T12:11:37;99274.63;;;47.39;8.60
20350;BME280;10332;50.208;18.988;2023-02-15T12:14:08;99268.31;;;46.93;9.08
20350;BME280;10332;50.208;18.988;2023-02-15T12:16:52;99270.13;;;48.17;8.40
20350;BME280;10332;50.208;18.988;2023-02-15T12:19:31;99258.41;;;48.12;8.62
20350;BME280;10332;50.208;18.988;2023-02-15T12:22:04;99265.00;;;47.76;8.34
20350;BME280;10332;50.208;18.988;2023-02-15T12:24:44;99248.53;;;47.31;8.57
20350;BME280;10332;50.208;18.988;2023-02-15T12:27:34;99247.91;;;46.45;8.77
20350;BME280;10332;50.208;18.988;2023-02-15T12:30:34;99251.16;;;46.24;9.16
20350;BME280;10332;50.208;18.988;2023-02-15T12:35:44;99239.03;;;46.48;8.84
20350;BME280;10332;50.208;18.988;2023-02-15T12:40:39;99237.72;;;48.70;8.37
20350;BME280;10332;50.208;18.988;2023-02-15T12:43:34;99232.19;;;47.61;8.73
20350;BME280;10332;50.208;18.988;2023-02-15T12:46:25;99228.59;;;48.43;8.53
20350;BME280;10332;50.208;18.988;2023-02-15T12:51:56;99213.88;;;48.86;8.27
20350;BME280;10332;50.208;18.988;2023-02-15T12:54:41;99219.44;;;48.08;8.24
20350;BME280;10332;50.208;18.988;2023-02-15T13:02:58;99210.75;;;47.84;8.73
20350;BME280;10332;50.208;18.988;2023-02-15T13:05:38;99191.06;;;47.06;8.99
20350;BME280;10332;50.208;18.988;2023-02-15T13:08:17;99196.94;;;48.01;8.67
20350;BME280;10332;50.208;18.988;2023-02-15T13:13:34;99185.19;;;47.30;8.83
20350;BME280;10332;50.208;18.988;2023-02-15T13:16:09;99183.94;;;46.82;9.02
20350;BME280;10332;50.208;18.988;2023-02-15T13:18:43;99185.75;;;46.42;8.75
20350;BME280;10332;50.208;18.988;2023-02-15T13:21:19;99180.88;;;46.03;9.00
20350;BME280;10332;50.208;18.988;2023-02-15T13:24:15;99173.81;;;46.47;9.08
20350;BME280;10332;50.208;18.988;2023-02-15T13:26:46;99172.72;;;47.10;8.56
20350;BME280;10332;50.208;18.988;2023-02-15T13:29:30;99172.41;;;46.58;8.81
20350;BME280;10332;50.208;18.988;2023-02-15T13:32:29;99161.34;;;45.36;8.84
20350;BME280;10332;50.208;18.988;2023-02-15T13:35:01;99156.94;;;44.42;9.27
20350;BME280;10332;50.208;18.988;2023-02-15T13:40:53;99163.72;;;43.93;9.50
20350;BME280;10332;50.208;18.988;2023-02-15T13:43:44;99145.56;;;43.01;9.86
20350;BME280;10332;50.208;18.988;2023-02-15T13:46:38;99143.16;;;42.95;9.86
20350;BME280;10332;50.208;18.988;2023-02-15T13:52:22;99137.13;;;41.85;10.54
20350;BME280;10332;50.208;18.988;2023-02-15T14:16:09;99142.56;;;43.70;9.37
20350;BME280;10332;50.208;18.988;2023-02-15T14:18:48;99140.97;;;44.06;9.35
20350;BME280;10332;50.208;18.988;2023-02-15T14:27:26;99122.13;;;40.88;10.36
20350;BME280;10332;50.208;18.988;2023-02-15T14:30:00;99125.91;;;38.43;11.41
20350;BME280;10332;50.208;18.988;2023-02-15T14:32:48;99121.56;;;37.66;11.86
20350;BME280;10332;50.208;18.988;2023-02-15T14:35:29;99110.78;;;36.93;12.12
20350;BME280;10332;50.208;18.988;2023-02-15T14:49:15;99107.91;;;32.60;15.21
20350;BME280;10332;50.208;18.988;2023-02-15T14:56:47;99099.63;;;31.54;15.85
20350;BME280;10332;50.208;18.988;2023-02-15T15:02:43;99101.59;;;31.27;16.54
20350;BME280;10332;50.208;18.988;2023-02-15T15:05:34;99102.13;;;30.84;16.61
20350;BME280;10332;50.208;18.988;2023-02-15T15:08:05;99103.16;;;30.50;17.31
20350;BME280;10332;50.208;18.988;2023-02-15T15:10:45;99104.53;;;29.93;17.69
20350;BME280;10332;50.208;18.988;2023-02-15T15:19:10;99097.44;;;28.34;19.15
20350;BME280;10332;50.208;18.988;2023-02-15T15:21:54;99091.59;;;27.87;19.37
20350;BME280;10332;50.208;18.988;2023-02-15T15:41:23;99089.03;;;20.50;27.55
20350;BME280;10332;50.208;18.988;2023-02-15T15:49:46;99085.75;;;17.41;32.59
20350;BME280;10332;50.208;18.988;2023-02-15T15:52:20;99084.06;;;16.50;34.43
20350;BME280;10332;50.208;18.988;2023-02-15T15:54:54;99084.88;;;16.28;34.28
20350;BME280;10332;50.208;18.988;2023-02-15T15:57:32;99075.22;;;15.81;34.66
20350;BME280;10332;50.208;18.988;2023-02-15T16:00:02;99081.63;;;15.29;36.39
20350;BME280;10332;50.208;18.988;2023-02-15T16:02:30;99077.69;;;15.11;36.42
20350;BME280;10332;50.208;18.988;2023-02-15T16:05:08;99079.84;;;14.67;37.58
20350;BME280;10332;50.208;18.988;2023-02-15T16:07:36;99076.13;;;14.32;39.56
20350;BME280;10332;50.208;18.988;2023-02-15T16:10:21;99078.31;;;14.12;39.22
20350;BME280;10332;50.208;18.988;2023-02-15T16:12:50;99078.44;;;13.84;39.67
20350;BME280;10332;50.208;18.988;2023-02-15T16:15:44;99079.91;;;13.48;41.08
20350;BME280;10332;50.208;18.988;2023-02-15T16:18:16;99079.09;;;13.19;42.22
20350;BME280;10332;50.208;18.988;2023-02-15T16:20:55;99085.47;;;13.01;42.39
20350;BME280;10332;50.208;18.988;2023-02-15T16:28:39;99086.50;;;12.41;45.17
20350;BME280;10332;50.208;18.988;2023-02-15T16:31:14;99086.75;;;12.23;46.02
20350;BME280;10332;50.208;18.988;2023-02-15T16:33:43;99086.59;;;12.10;45.91
20350;BME280;10332;50.208;18.988;2023-02-15T16:36:27;99091.81;;;11.96;46.04
20350;BME280;10332;50.208;18.988;2023-02-15T16:41:26;99089.53;;;11.74;46.87
20350;BME280;10332;50.208;18.988;2023-02-15T16:43:59;99096.44;;;11.59;47.83